Aérodrome :
LOGIN :

S'inscrire | Disclaimer

   EN    FR    IT 

 










Légende :    VFR   VFR Marginal   IFR   IFR Intensif   IFR Très Intensif
Visi : 
Plafond : 
>= 8 km
>= 3000ft
5 à 8 km
1000 à 3000 ft
1500m à 5 km
500 à 1000 ft
800 à 1500m
200 à 500 ft
< 800m
< 200 ft
Symboles :   Orages  Brouillard  Fortes neiges  Fortes précipitations  Vent > 20 kt
SIGMETs :   Divers  Orages  Givrage  Turbulence  Onde Orograph.  Cendres Volcan.






- Altitude de l'aérodrome : 44 ft
- Code IATA : POR


EFPO - Pori

DERNIER METAR :
  • 221950Z AUTO 28025G47KT 6000 SNRA OVC005 02/01 Q0966 RERA

METARs EXPIRÉS :
  • 221920Z AUTO 28022KT 5000 -SHRA OVC004 02/01 Q0965
  • 221850Z AUTO 27013G23KT 240V310 5000 SHRA OVC005 03/02 Q0963
  • 221820Z AUTO 22013G23KT 170V250 9999 -RA OVC006 02/01 Q0963
  • 221750Z AUTO 21019G34KT 180V240 4800 -RA OVC010 03/02 Q0964 REDZ
  • 221720Z AUTO 20021G34KT 170V240 9000 -SHRA OVC017 05/02 Q0965

Prévision TAF périmée.



MET'MAP, la Météo Aéronautique d'un coup d'oeil ! - Copyright ORBIFLY Décembre 2007 - Disclaimer

ORBIFLY MET'MAP TEAM :

Programmation & Développement : Alexandra Zaïnal
Sur une idée originale de : Baudouin d'Aumeries
Assistance à la programmation : Marc-Olivier Méhu
Soutien technique & logistique : Manuel Goepfert

Contact : metmap@orbifly.com




SOURCES & CREDITS :

   NOAA